sensor_id;sensor_type;location;lat;lon;timestamp;temperature;humidity
49579;DHT22;35483;50.828;3.228;2023-10-13T00:01:54;18.80;99.90
49579;DHT22;35483;50.828;3.228;2023-10-13T00:04:21;18.80;99.90
49579;DHT22;35483;50.828;3.228;2023-10-13T00:06:56;18.80;99.90
49579;DHT22;35483;50.828;3.228;2023-10-13T00:09:23;18.80;99.90
49579;DHT22;35483;50.828;3.228;2023-10-13T00:11:55;18.80;99.90
49579;DHT22;35483;50.828;3.228;2023-10-13T00:14:22;18.80;99.90
49579;DHT22;35483;50.828;3.228;2023-10-13T00:16:48;18.90;99.90
49579;DHT22;35483;50.828;3.228;2023-10-13T00:19:37;18.80;99.90
49579;DHT22;35483;50.828;3.228;2023-10-13T00:22:13;18.80;99.90
49579;DHT22;35483;50.828;3.228;2023-10-13T00:24:42;18.80;99.90
49579;DHT22;35483;50.828;3.228;2023-10-13T00:27:13;18.80;99.90
49579;DHT22;35483;50.828;3.228;2023-10-13T00:30:06;18.80;99.90
49579;DHT22;35483;50.828;3.228;2023-10-13T00:32:51;18.90;99.90
49579;DHT22;35483;50.828;3.228;2023-10-13T00:35:27;18.90;99.90
49579;DHT22;35483;50.828;3.228;2023-10-13T00:37:58;18.90;99.90
49579;DHT22;35483;50.828;3.228;2023-10-13T00:40:29;18.90;99.90
49579;DHT22;35483;50.828;3.228;2023-10-13T00:42:55;18.80;99.90
49579;DHT22;35483;50.828;3.228;2023-10-13T00:45:31;18.80;99.90
49579;DHT22;35483;50.828;3.228;2023-10-13T00:47:59;18.90;99.90
49579;DHT22;35483;50.828;3.228;2023-10-13T00:50:27;18.90;99.90
49579;DHT22;35483;50.828;3.228;2023-10-13T00:52:55;18.90;99.90
49579;DHT22;35483;50.828;3.228;2023-10-13T00:55:21;18.90;99.90
49579;DHT22;35483;50.828;3.228;2023-10-13T00:57:52;18.90;99.90
49579;DHT22;35483;50.828;3.228;2023-10-13T01:00:20;18.90;99.90
49579;DHT22;35483;50.828;3.228;2023-10-13T01:02:50;18.90;99.90
49579;DHT22;35483;50.828;3.228;2023-10-13T01:05:23;18.90;99.90
49579;DHT22;35483;50.828;3.228;2023-10-13T01:07:49;19.00;99.90
49579;DHT22;35483;50.828;3.228;2023-10-13T01:10:19;19.00;99.90
49579;DHT22;35483;50.828;3.228;2023-10-13T01:12:46;19.00;99.90
49579;DHT22;35483;50.828;3.228;2023-10-13T01:15:13;19.00;99.90
49579;DHT22;35483;50.828;3.228;2023-10-13T01:17:42;19.00;99.90
49579;DHT22;35483;50.828;3.228;2023-10-13T01:20:13;19.00;99.90
49579;DHT22;35483;50.828;3.228;2023-10-13T01:22:46;19.10;99.90
49579;DHT22;35483;50.828;3.228;2023-10-13T01:25:25;19.10;99.90
49579;DHT22;35483;50.828;3.228;2023-10-13T01:27:54;19.10;99.90
49579;DHT22;35483;50.828;3.228;2023-10-13T01:30:20;19.10;99.90
49579;DHT22;35483;50.828;3.228;2023-10-13T01:32:52;19.10;99.90
49579;DHT22;35483;50.828;3.228;2023-10-13T01:35:19;19.10;99.90
49579;DHT22;35483;50.828;3.228;2023-10-13T01:37:51;19.00;99.90
49579;DHT22;35483;50.828;3.228;2023-10-13T01:40:17;19.00;99.90
49579;DHT22;35483;50.828;3.228;2023-10-13T01:42:48;19.00;99.90
49579;DHT22;35483;50.828;3.228;2023-10-13T01:45:21;18.90;99.90
49579;DHT22;35483;50.828;3.228;2023-10-13T01:47:47;18.90;99.90
49579;DHT22;35483;50.828;3.228;2023-10-13T01:50:16;18.90;99.90
49579;DHT22;35483;50.828;3.228;2023-10-13T01:52:53;18.90;99.90
49579;DHT22;35483;50.828;3.228;2023-10-13T01:55:26;18.90;99.90
49579;DHT22;35483;50.828;3.228;2023-10-13T01:57:52;19.00;99.90
49579;DHT22;35483;50.828;3.228;2023-10-13T02:00:21;19.00;99.90
49579;DHT22;35483;50.828;3.228;2023-10-13T02:02:46;19.00;99.90
49579;DHT22;35483;50.828;3.228;2023-10-13T02:05:16;19.00;99.90
49579;DHT22;35483;50.828;3.228;2023-10-13T02:07:43;19.00;99.90
49579;DHT22;35483;50.828;3.228;2023-10-13T02:10:12;19.10;99.90
49579;DHT22;35483;50.828;3.228;2023-10-13T02:12:39;19.10;99.90
49579;DHT22;35483;50.828;3.228;2023-10-13T02:15:13;19.10;99.90
49579;DHT22;35483;50.828;3.228;2023-10-13T02:17:53;19.20;99.90
49579;DHT22;35483;50.828;3.228;2023-10-13T02:20:20;19.20;99.90
49579;DHT22;35483;50.828;3.228;2023-10-13T02:22:49;19.20;99.90
49579;DHT22;35483;50.828;3.228;2023-10-13T02:25:18;19.20;99.90
49579;DHT22;35483;50.828;3.228;2023-10-13T02:28:01;19.20;99.90
49579;DHT22;35483;50.828;3.228;2023-10-13T02:30:27;19.30;99.90
49579;DHT22;35483;50.828;3.228;2023-10-13T02:32:53;19.20;99.90
49579;DHT22;35483;50.828;3.228;2023-10-13T02:35:21;19.30;99.90
49579;DHT22;35483;50.828;3.228;2023-10-13T02:37:56;19.30;99.90
49579;DHT22;35483;50.828;3.228;2023-10-13T02:40:24;19.30;99.90
49579;DHT22;35483;50.828;3.228;2023-10-13T02:42:50;19.30;99.90
49579;DHT22;35483;50.828;3.228;2023-10-13T02:45:15;19.30;99.90
49579;DHT22;35483;50.828;3.228;2023-10-13T02:47:43;19.30;99.90
49579;DHT22;35483;50.828;3.228;2023-10-13T02:50:09;19.30;99.90
49579;DHT22;35483;50.828;3.228;2023-10-13T02:52:38;19.30;99.90
49579;DHT22;35483;50.828;3.228;2023-10-13T02:55:07;19.30;99.90
49579;DHT22;35483;50.828;3.228;2023-10-13T02:57:39;19.40;99.90
49579;DHT22;35483;50.828;3.228;2023-10-13T03:00:07;19.30;99.90
49579;DHT22;35483;50.828;3.228;2023-10-13T03:02:38;19.30;99.90
49579;DHT22;35483;50.828;3.228;2023-10-13T03:05:10;19.30;99.90
49579;DHT22;35483;50.828;3.228;2023-10-13T03:07:40;19.30;99.90
49579;DHT22;35483;50.828;3.228;2023-10-13T03:10:09;19.30;99.90
49579;DHT22;35483;50.828;3.228;2023-10-13T03:12:39;19.30;99.90
49579;DHT22;35483;50.828;3.228;2023-10-13T03:15:06;19.30;99.90
49579;DHT22;35483;50.828;3.228;2023-10-13T03:17:39;19.30;99.90
49579;DHT22;35483;50.828;3.228;2023-10-13T03:20:10;19.30;99.90
49579;DHT22;35483;50.828;3.228;2023-10-13T03:22:39;19.30;99.90
49579;DHT22;35483;50.828;3.228;2023-10-13T03:25:05;19.30;99.90
49579;DHT22;35483;50.828;3.228;2023-10-13T03:27:33;19.30;99.90
49579;DHT22;35483;50.828;3.228;2023-10-13T03:30:19;19.30;99.90
49579;DHT22;35483;50.828;3.228;2023-10-13T03:32:47;19.30;99.90
49579;DHT22;35483;50.828;3.228;2023-10-13T03:35:21;19.30;99.90
49579;DHT22;35483;50.828;3.228;2023-10-13T03:37:52;19.20;99.90
49579;DHT22;35483;50.828;3.228;2023-10-13T03:40:18;19.20;99.90
49579;DHT22;35483;50.828;3.228;2023-10-13T03:45:40;19.20;99.90
49579;DHT22;35483;50.828;3.228;2023-10-13T03:48:10;19.20;99.90
49579;DHT22;35483;50.828;3.228;2023-10-13T03:50:41;19.20;99.90
49579;DHT22;35483;50.828;3.228;2023-10-13T03:53:28;19.20;99.90
49579;DHT22;35483;50.828;3.228;2023-10-13T03:56:00;19.20;99.90
49579;DHT22;35483;50.828;3.228;2023-10-13T03:58:39;19.20;99.90
49579;DHT22;35483;50.828;3.228;2023-10-13T04:01:11;19.20;99.90
49579;DHT22;35483;50.828;3.228;2023-10-13T04:03:40;19.20;99.90
49579;DHT22;35483;50.828;3.228;2023-10-13T04:06:25;19.20;99.90
49579;DHT22;35483;50.828;3.228;2023-10-13T04:09:16;19.20;99.90
49579;DHT22;35483;50.828;3.228;2023-10-13T04:12:04;19.20;99.90
49579;DHT22;35483;50.828;3.228;2023-10-13T04:14:33;19.20;99.90
49579;DHT22;35483;50.828;3.228;2023-10-13T04:17:17;19.20;99.90
49579;DHT22;35483;50.828;3.228;2023-10-13T04:19:52;19.20;99.90
49579;DHT22;35483;50.828;3.228;2023-10-13T04:22:36;19.20;99.90
49579;DHT22;35483;50.828;3.228;2023-10-13T04:25:27;19.10;99.90
49579;DHT22;35483;50.828;3.228;2023-10-13T04:28:15;19.10;99.90
49579;DHT22;35483;50.828;3.228;2023-10-13T04:30:59;19.00;99.90
49579;DHT22;35483;50.828;3.228;2023-10-13T04:33:37;19.00;99.90
49579;DHT22;35483;50.828;3.228;2023-10-13T04:36:21;19.00;99.90
49579;DHT22;35483;50.828;3.228;2023-10-13T04:38:55;19.00;99.90
49579;DHT22;35483;50.828;3.228;2023-10-13T04:43:50;18.90;99.90
49579;DHT22;35483;50.828;3.228;2023-10-13T04:46:23;19.00;99.90
49579;DHT22;35483;50.828;3.228;2023-10-13T04:49:05;18.90;99.90
49579;DHT22;35483;50.828;3.228;2023-10-13T04:51:53;18.90;99.90
49579;DHT22;35483;50.828;3.228;2023-10-13T04:54:27;18.90;99.90
49579;DHT22;35483;50.828;3.228;2023-10-13T04:57:00;18.90;99.90
49579;DHT22;35483;50.828;3.228;2023-10-13T04:59:46;18.90;99.90
49579;DHT22;35483;50.828;3.228;2023-10-13T05:02:33;19.00;99.90
49579;DHT22;35483;50.828;3.228;2023-10-13T05:05:09;19.00;99.90
49579;DHT22;35483;50.828;3.228;2023-10-13T05:07:45;19.00;99.90
49579;DHT22;35483;50.828;3.228;2023-10-13T05:10:30;19.00;99.90
49579;DHT22;35483;50.828;3.228;2023-10-13T05:13:14;19.00;99.90
49579;DHT22;35483;50.828;3.228;2023-10-13T05:15:58;18.90;99.90
49579;DHT22;35483;50.828;3.228;2023-10-13T05:18:43;18.90;99.90
49579;DHT22;35483;50.828;3.228;2023-10-13T05:21:27;18.90;99.90
49579;DHT22;35483;50.828;3.228;2023-10-13T05:24:12;18.90;99.90
49579;DHT22;35483;50.828;3.228;2023-10-13T05:26:56;19.00;99.90
49579;DHT22;35483;50.828;3.228;2023-10-13T05:29:42;19.00;99.90
49579;DHT22;35483;50.828;3.228;2023-10-13T05:32:27;19.00;99.90
49579;DHT22;35483;50.828;3.228;2023-10-13T05:35:12;19.00;99.90
49579;DHT22;35483;50.828;3.228;2023-10-13T05:37:56;19.00;99.90
49579;DHT22;35483;50.828;3.228;2023-10-13T05:40:40;19.00;99.90
49579;DHT22;35483;50.828;3.228;2023-10-13T05:43:24;19.00;99.90
49579;DHT22;35483;50.828;3.228;2023-10-13T05:46:08;19.00;99.90
49579;DHT22;35483;50.828;3.228;2023-10-13T05:49:02;19.00;99.90
49579;DHT22;35483;50.828;3.228;2023-10-13T05:51:32;19.10;99.90
49579;DHT22;35483;50.828;3.228;2023-10-13T05:53:59;19.10;99.90
49579;DHT22;35483;50.828;3.228;2023-10-13T05:56:43;19.10;99.90
49579;DHT22;35483;50.828;3.228;2023-10-13T05:59:28;19.10;99.90
49579;DHT22;35483;50.828;3.228;2023-10-13T06:02:14;19.10;99.90
49579;DHT22;35483;50.828;3.228;2023-10-13T06:05:04;19.10;99.90
49579;DHT22;35483;50.828;3.228;2023-10-13T06:07:48;19.10;99.90
49579;DHT22;35483;50.828;3.228;2023-10-13T06:10:33;19.20;99.90
49579;DHT22;35483;50.828;3.228;2023-10-13T06:13:17;19.20;99.90
49579;DHT22;35483;50.828;3.228;2023-10-13T06:16:21;19.20;99.90
49579;DHT22;35483;50.828;3.228;2023-10-13T06:19:05;19.20;99.90
49579;DHT22;35483;50.828;3.228;2023-10-13T06:21:49;19.20;99.90
49579;DHT22;35483;50.828;3.228;2023-10-13T06:24:33;19.20;99.90
49579;DHT22;35483;50.828;3.228;2023-10-13T06:27:17;19.30;99.90
49579;DHT22;35483;50.828;3.228;2023-10-13T06:30:02;19.30;99.90
49579;DHT22;35483;50.828;3.228;2023-10-13T06:32:30;19.30;99.90
49579;DHT22;35483;50.828;3.228;2023-10-13T06:34:56;19.40;99.90
49579;DHT22;35483;50.828;3.228;2023-10-13T06:37:48;19.40;99.90
49579;DHT22;35483;50.828;3.228;2023-10-13T06:40:14;19.40;99.90
49579;DHT22;35483;50.828;3.228;2023-10-13T06:42:55;19.50;99.90
49579;DHT22;35483;50.828;3.228;2023-10-13T06:45:37;19.40;99.90
49579;DHT22;35483;50.828;3.228;2023-10-13T06:48:03;19.40;99.90
49579;DHT22;35483;50.828;3.228;2023-10-13T06:50:30;19.50;99.90
49579;DHT22;35483;50.828;3.228;2023-10-13T06:53:04;19.50;99.90
49579;DHT22;35483;50.828;3.228;2023-10-13T06:55:31;19.60;99.90
49579;DHT22;35483;50.828;3.228;2023-10-13T06:58:06;19.50;99.90
49579;DHT22;35483;50.828;3.228;2023-10-13T07:00:32;19.60;99.90
49579;DHT22;35483;50.828;3.228;2023-10-13T07:03:06;19.60;99.90
49579;DHT22;35483;50.828;3.228;2023-10-13T07:05:36;19.60;99.90
49579;DHT22;35483;50.828;3.228;2023-10-13T07:08:06;19.70;99.90
49579;DHT22;35483;50.828;3.228;2023-10-13T07:10:32;19.70;99.90
49579;DHT22;35483;50.828;3.228;2023-10-13T07:13:11;19.70;99.90
49579;DHT22;35483;50.828;3.228;2023-10-13T07:15:39;19.80;99.90
49579;DHT22;35483;50.828;3.228;2023-10-13T07:18:14;19.80;99.90
49579;DHT22;35483;50.828;3.228;2023-10-13T07:20:42;19.80;99.90
49579;DHT22;35483;50.828;3.228;2023-10-13T07:23:12;19.90;99.90
49579;DHT22;35483;50.828;3.228;2023-10-13T07:25:51;19.90;99.90
49579;DHT22;35483;50.828;3.228;2023-10-13T07:28:16;19.90;99.90
49579;DHT22;35483;50.828;3.228;2023-10-13T07:30:43;20.00;99.90
49579;DHT22;35483;50.828;3.228;2023-10-13T07:33:29;20.00;99.90
49579;DHT22;35483;50.828;3.228;2023-10-13T07:36:04;20.00;99.90
49579;DHT22;35483;50.828;3.228;2023-10-13T07:38:45;20.10;99.90
49579;DHT22;35483;50.828;3.228;2023-10-13T07:41:17;20.10;99.90
49579;DHT22;35483;50.828;3.228;2023-10-13T07:43:47;20.20;99.90
49579;DHT22;35483;50.828;3.228;2023-10-13T07:46:14;20.20;99.90
49579;DHT22;35483;50.828;3.228;2023-10-13T07:48:40;20.30;99.90
49579;DHT22;35483;50.828;3.228;2023-10-13T07:51:09;20.40;99.90
49579;DHT22;35483;50.828;3.228;2023-10-13T07:53:45;20.40;99.90
49579;DHT22;35483;50.828;3.228;2023-10-13T07:56:14;20.50;99.90
49579;DHT22;35483;50.828;3.228;2023-10-13T07:58:44;20.50;99.90
49579;DHT22;35483;50.828;3.228;2023-10-13T08:01:19;20.60;99.90
49579;DHT22;35483;50.828;3.228;2023-10-13T08:03:45;20.60;99.90
49579;DHT22;35483;50.828;3.228;2023-10-13T08:06:18;20.60;99.90
49579;DHT22;35483;50.828;3.228;2023-10-13T08:08:43;20.60;99.90
49579;DHT22;35483;50.828;3.228;2023-10-13T08:11:11;20.60;99.90
49579;DHT22;35483;50.828;3.228;2023-10-13T08:13:46;20.60;99.90
49579;DHT22;35483;50.828;3.228;2023-10-13T08:16:15;20.60;99.90
49579;DHT22;35483;50.828;3.228;2023-10-13T08:18:52;20.70;99.90
49579;DHT22;35483;50.828;3.228;2023-10-13T08:21:19;20.80;99.90
49579;DHT22;35483;50.828;3.228;2023-10-13T08:23:57;20.80;99.90
49579;DHT22;35483;50.828;3.228;2023-10-13T08:26:26;20.90;99.90
49579;DHT22;35483;50.828;3.228;2023-10-13T08:29:04;20.90;99.90
49579;DHT22;35483;50.828;3.228;2023-10-13T08:31:50;20.90;99.90
49579;DHT22;35483;50.828;3.228;2023-10-13T08:34:35;20.90;99.90
49579;DHT22;35483;50.828;3.228;2023-10-13T08:37:05;20.90;99.90
49579;DHT22;35483;50.828;3.228;2023-10-13T08:39:55;20.90;99.90
49579;DHT22;35483;50.828;3.228;2023-10-13T08:42:30;20.90;99.90
49579;DHT22;35483;50.828;3.228;2023-10-13T08:45:09;21.00;99.90
49579;DHT22;35483;50.828;3.228;2023-10-13T08:47:54;21.10;99.90
49579;DHT22;35483;50.828;3.228;2023-10-13T08:50:51;21.10;99.90
49579;DHT22;35483;50.828;3.228;2023-10-13T08:53:23;21.10;99.90
49579;DHT22;35483;50.828;3.228;2023-10-13T08:56:01;21.10;99.90
49579;DHT22;35483;50.828;3.228;2023-10-13T08:58:45;21.10;99.90
49579;DHT22;35483;50.828;3.228;2023-10-13T09:01:28;21.00;99.90
49579;DHT22;35483;50.828;3.228;2023-10-13T09:04:04;21.10;99.90
49579;DHT22;35483;50.828;3.228;2023-10-13T09:07:02;21.10;99.90
49579;DHT22;35483;50.828;3.228;2023-10-13T09:09:48;21.20;99.90
49579;DHT22;35483;50.828;3.228;2023-10-13T09:12:21;21.20;99.90
49579;DHT22;35483;50.828;3.228;2023-10-13T09:15:01;21.30;99.90
49579;DHT22;35483;50.828;3.228;2023-10-13T09:17:32;21.30;99.90
49579;DHT22;35483;50.828;3.228;2023-10-13T09:20:09;21.40;99.90
49579;DHT22;35483;50.828;3.228;2023-10-13T09:22:58;21.30;99.90
49579;DHT22;35483;50.828;3.228;2023-10-13T09:25:31;21.40;99.90
49579;DHT22;35483;50.828;3.228;2023-10-13T09:28:10;21.30;99.90
49579;DHT22;35483;50.828;3.228;2023-10-13T09:30:51;21.40;99.90
49579;DHT22;35483;50.828;3.228;2023-10-13T09:33:23;21.40;99.90
49579;DHT22;35483;50.828;3.228;2023-10-13T09:35:59;21.50;99.90
49579;DHT22;35483;50.828;3.228;2023-10-13T09:38:29;21.50;99.90
49579;DHT22;35483;50.828;3.228;2023-10-13T09:40:55;21.60;99.90
49579;DHT22;35483;50.828;3.228;2023-10-13T09:43:27;21.60;99.90
49579;DHT22;35483;50.828;3.228;2023-10-13T09:46:00;21.50;99.90
49579;DHT22;35483;50.828;3.228;2023-10-13T09:51:04;21.50;99.90
49579;DHT22;35483;50.828;3.228;2023-10-13T09:53:40;21.50;99.90
49579;DHT22;35483;50.828;3.228;2023-10-13T09:56:17;21.40;99.90
49579;DHT22;35483;50.828;3.228;2023-10-13T09:58:52;21.40;99.90
49579;DHT22;35483;50.828;3.228;2023-10-13T10:01:24;21.30;99.90
49579;DHT22;35483;50.828;3.228;2023-10-13T10:04:08;21.40;99.90
49579;DHT22;35483;50.828;3.228;2023-10-13T10:06:55;21.30;99.90
49579;DHT22;35483;50.828;3.228;2023-10-13T10:09:33;21.40;99.90
49579;DHT22;35483;50.828;3.228;2023-10-13T10:15:07;21.50;99.90
49579;DHT22;35483;50.828;3.228;2023-10-13T10:17:43;21.60;99.90
49579;DHT22;35483;50.828;3.228;2023-10-13T10:20:09;21.60;99.90
49579;DHT22;35483;50.828;3.228;2023-10-13T10:22:56;21.70;99.90
49579;DHT22;35483;50.828;3.228;2023-10-13T10:25:32;21.90;99.90
49579;DHT22;35483;50.828;3.228;2023-10-13T10:28:05;21.90;99.90
49579;DHT22;35483;50.828;3.228;2023-10-13T10:30:38;22.00;99.90
49579;DHT22;35483;50.828;3.228;2023-10-13T10:33:05;22.10;99.90
49579;DHT22;35483;50.828;3.228;2023-10-13T10:36:01;22.20;99.90
49579;DHT22;35483;50.828;3.228;2023-10-13T10:38:26;22.30;99.90
49579;DHT22;35483;50.828;3.228;2023-10-13T10:40:57;22.30;99.90
49579;DHT22;35483;50.828;3.228;2023-10-13T10:43:44;22.30;99.90
49579;DHT22;35483;50.828;3.228;2023-10-13T10:46:29;22.40;98.50
49579;DHT22;35483;50.828;3.228;2023-10-13T10:49:08;22.40;99.90
49579;DHT22;35483;50.828;3.228;2023-10-13T10:51:39;22.40;99.90
49579;DHT22;35483;50.828;3.228;2023-10-13T10:54:18;22.50;99.90
49579;DHT22;35483;50.828;3.228;2023-10-13T10:56:46;22.60;99.50
49579;DHT22;35483;50.828;3.228;2023-10-13T10:59:19;22.70;99.60
49579;DHT22;35483;50.828;3.228;2023-10-13T11:01:46;22.80;99.90
49579;DHT22;35483;50.828;3.228;2023-10-13T11:04:18;22.90;99.90
49579;DHT22;35483;50.828;3.228;2023-10-13T11:06:54;23.00;99.90
49579;DHT22;35483;50.828;3.228;2023-10-13T11:09:31;23.10;99.90
49579;DHT22;35483;50.828;3.228;2023-10-13T11:14:41;23.30;99.40
49579;DHT22;35483;50.828;3.228;2023-10-13T11:17:07;23.30;99.60
49579;DHT22;35483;50.828;3.228;2023-10-13T11:19:46;23.30;99.80
49579;DHT22;35483;50.828;3.228;2023-10-13T11:22:16;23.40;99.80
49579;DHT22;35483;50.828;3.228;2023-10-13T11:25:05;23.40;99.50
49579;DHT22;35483;50.828;3.228;2023-10-13T11:27:38;23.40;99.00
49579;DHT22;35483;50.828;3.228;2023-10-13T11:30:22;23.30;99.50
49579;DHT22;35483;50.828;3.228;2023-10-13T11:33:05;23.30;99.90
49579;DHT22;35483;50.828;3.228;2023-10-13T11:35:35;23.20;98.50
49579;DHT22;35483;50.828;3.228;2023-10-13T11:38:23;23.20;99.80
49579;DHT22;35483;50.828;3.228;2023-10-13T11:41:00;23.20;99.50
49579;DHT22;35483;50.828;3.228;2023-10-13T11:43:35;23.20;99.40
49579;DHT22;35483;50.828;3.228;2023-10-13T11:46:23;23.10;99.80
49579;DHT22;35483;50.828;3.228;2023-10-13T11:49:02;23.20;99.70
49579;DHT22;35483;50.828;3.228;2023-10-13T11:51:44;23.20;99.70
49579;DHT22;35483;50.828;3.228;2023-10-13T11:54:15;23.20;99.50
49579;DHT22;35483;50.828;3.228;2023-10-13T11:56:43;23.30;98.60
49579;DHT22;35483;50.828;3.228;2023-10-13T11:59:08;23.40;99.40
49579;DHT22;35483;50.828;3.228;2023-10-13T12:01:44;23.50;99.40
49579;DHT22;35483;50.828;3.228;2023-10-13T12:04:28;23.60;99.30
49579;DHT22;35483;50.828;3.228;2023-10-13T12:07:07;23.60;99.30
49579;DHT22;35483;50.828;3.228;2023-10-13T12:09:52;23.60;99.20
49579;DHT22;35483;50.828;3.228;2023-10-13T12:12:29;23.70;99.20
49579;DHT22;35483;50.828;3.228;2023-10-13T12:14:56;23.70;99.20
49579;DHT22;35483;50.828;3.228;2023-10-13T12:19:54;23.70;99.10
49579;DHT22;35483;50.828;3.228;2023-10-13T12:22:20;23.70;99.20
49579;DHT22;35483;50.828;3.228;2023-10-13T12:25:04;23.70;99.20
49579;DHT22;35483;50.828;3.228;2023-10-13T12:27:44;23.70;98.80
49579;DHT22;35483;50.828;3.228;2023-10-13T12:30:14;23.60;99.30
49579;DHT22;35483;50.828;3.228;2023-10-13T12:32:48;23.50;99.30
49579;DHT22;35483;50.828;3.228;2023-10-13T12:35:25;23.50;99.40
49579;DHT22;35483;50.828;3.228;2023-10-13T12:38:01;23.40;99.20
49579;DHT22;35483;50.828;3.228;2023-10-13T12:40:42;23.40;99.30
49579;DHT22;35483;50.828;3.228;2023-10-13T12:43:26;23.30;99.40
49579;DHT22;35483;50.828;3.228;2023-10-13T12:46:10;23.30;99.30
49579;DHT22;35483;50.828;3.228;2023-10-13T12:48:54;23.30;99.10
49579;DHT22;35483;50.828;3.228;2023-10-13T12:51:38;23.30;99.30
49579;DHT22;35483;50.828;3.228;2023-10-13T12:54:04;23.30;99.40
49579;DHT22;35483;50.828;3.228;2023-10-13T12:56:31;23.30;99.20
49579;DHT22;35483;50.828;3.228;2023-10-13T12:58:57;23.30;99.20
49579;DHT22;35483;50.828;3.228;2023-10-13T13:01:24;23.30;99.20
49579;DHT22;35483;50.828;3.228;2023-10-13T13:03:52;23.30;99.00
49579;DHT22;35483;50.828;3.228;2023-10-13T13:06:27;23.30;99.00
49579;DHT22;35483;50.828;3.228;2023-10-13T13:08:56;23.30;98.50
49579;DHT22;35483;50.828;3.228;2023-10-13T13:11:23;23.30;99.00
49579;DHT22;35483;50.828;3.228;2023-10-13T13:13:49;23.30;99.10
49579;DHT22;35483;50.828;3.228;2023-10-13T13:16:18;23.40;99.10
49579;DHT22;35483;50.828;3.228;2023-10-13T13:18:45;23.50;98.80
49579;DHT22;35483;50.828;3.228;2023-10-13T13:21:11;23.40;99.00
49579;DHT22;35483;50.828;3.228;2023-10-13T13:23:47;23.40;99.00
49579;DHT22;35483;50.828;3.228;2023-10-13T13:26:13;23.40;99.00
49579;DHT22;35483;50.828;3.228;2023-10-13T13:28:45;23.40;99.00
49579;DHT22;35483;50.828;3.228;2023-10-13T13:31:11;23.40;98.60
49579;DHT22;35483;50.828;3.228;2023-10-13T13:33:38;23.30;99.00
49579;DHT22;35483;50.828;3.228;2023-10-13T13:36:07;23.30;99.10
49579;DHT22;35483;50.828;3.228;2023-10-13T13:38:39;23.30;99.10
49579;DHT22;35483;50.828;3.228;2023-10-13T13:41:12;23.30;99.00
49579;DHT22;35483;50.828;3.228;2023-10-13T13:43:43;23.20;99.00
49579;DHT22;35483;50.828;3.228;2023-10-13T13:46:16;23.20;99.00
49579;DHT22;35483;50.828;3.228;2023-10-13T13:48:43;23.20;99.00
49579;DHT22;35483;50.828;3.228;2023-10-13T13:51:13;23.20;99.00
49579;DHT22;35483;50.828;3.228;2023-10-13T13:53:45;23.10;98.90
49579;DHT22;35483;50.828;3.228;2023-10-13T13:56:14;23.00;99.00
49579;DHT22;35483;50.828;3.228;2023-10-13T13:58:47;23.00;99.00
49579;DHT22;35483;50.828;3.228;2023-10-13T14:01:14;23.00;98.80
49579;DHT22;35483;50.828;3.228;2023-10-13T14:03:51;23.00;98.90
49579;DHT22;35483;50.828;3.228;2023-10-13T14:06:22;23.00;99.00
49579;DHT22;35483;50.828;3.228;2023-10-13T14:08:58;23.00;98.20
49579;DHT22;35483;50.828;3.228;2023-10-13T14:11:40;23.00;98.80
49579;DHT22;35483;50.828;3.228;2023-10-13T14:14:14;23.00;99.00
49579;DHT22;35483;50.828;3.228;2023-10-13T14:16:52;22.90;98.20
49579;DHT22;35483;50.828;3.228;2023-10-13T14:19:19;22.90;99.10
49579;DHT22;35483;50.828;3.228;2023-10-13T14:21:53;22.80;99.00
49579;DHT22;35483;50.828;3.228;2023-10-13T14:24:23;22.80;99.10
49579;DHT22;35483;50.828;3.228;2023-10-13T14:27:00;22.70;99.00
49579;DHT22;35483;50.828;3.228;2023-10-13T14:29:38;22.70;99.00
49579;DHT22;35483;50.828;3.228;2023-10-13T14:32:13;22.70;99.10
49579;DHT22;35483;50.828;3.228;2023-10-13T14:34:45;22.70;98.50
49579;DHT22;35483;50.828;3.228;2023-10-13T14:37:11;22.70;99.10
49579;DHT22;35483;50.828;3.228;2023-10-13T14:39:46;22.70;99.00
49579;DHT22;35483;50.828;3.228;2023-10-13T14:42:12;22.80;99.00
49579;DHT22;35483;50.828;3.228;2023-10-13T14:44:38;22.80;99.00
49579;DHT22;35483;50.828;3.228;2023-10-13T14:47:03;22.80;98.90
49579;DHT22;35483;50.828;3.228;2023-10-13T14:49:34;22.80;98.90
49579;DHT22;35483;50.828;3.228;2023-10-13T14:52:01;22.80;98.90
49579;DHT22;35483;50.828;3.228;2023-10-13T14:54:27;22.80;98.80
49579;DHT22;35483;50.828;3.228;2023-10-13T14:56:59;22.80;98.70
49579;DHT22;35483;50.828;3.228;2023-10-13T14:59:25;22.90;98.70
49579;DHT22;35483;50.828;3.228;2023-10-13T15:01:52;22.90;98.70
49579;DHT22;35483;50.828;3.228;2023-10-13T15:04:18;22.90;98.60
49579;DHT22;35483;50.828;3.228;2023-10-13T15:06:43;22.90;98.70
49579;DHT22;35483;50.828;3.228;2023-10-13T15:09:09;23.00;98.70
49579;DHT22;35483;50.828;3.228;2023-10-13T15:11:36;23.00;98.70
49579;DHT22;35483;50.828;3.228;2023-10-13T15:14:06;22.90;98.50
49579;DHT22;35483;50.828;3.228;2023-10-13T15:16:34;22.90;98.30
49579;DHT22;35483;50.828;3.228;2023-10-13T15:19:00;22.90;98.60
49579;DHT22;35483;50.828;3.228;2023-10-13T15:21:29;22.80;98.60
49579;DHT22;35483;50.828;3.228;2023-10-13T15:24:02;22.80;98.60
49579;DHT22;35483;50.828;3.228;2023-10-13T15:26:45;22.80;98.60
49579;DHT22;35483;50.828;3.228;2023-10-13T15:29:17;22.70;98.20
49579;DHT22;35483;50.828;3.228;2023-10-13T15:31:47;22.70;97.80
49579;DHT22;35483;50.828;3.228;2023-10-13T15:34:24;22.60;97.80
49579;DHT22;35483;50.828;3.228;2023-10-13T15:36:53;22.70;98.60
49579;DHT22;35483;50.828;3.228;2023-10-13T15:39:21;22.60;98.50
49579;DHT22;35483;50.828;3.228;2023-10-13T15:41:54;22.70;98.70
49579;DHT22;35483;50.828;3.228;2023-10-13T15:44:27;22.60;98.50
49579;DHT22;35483;50.828;3.228;2023-10-13T15:46:56;22.60;98.40
49579;DHT22;35483;50.828;3.228;2023-10-13T15:49:22;22.60;98.80
49579;DHT22;35483;50.828;3.228;2023-10-13T15:51:48;22.50;98.80
49579;DHT22;35483;50.828;3.228;2023-10-13T15:54:18;22.50;98.90
49579;DHT22;35483;50.828;3.228;2023-10-13T15:56:48;22.40;99.20
49579;DHT22;35483;50.828;3.228;2023-10-13T15:59:14;22.30;98.90
49579;DHT22;35483;50.828;3.228;2023-10-13T16:01:41;22.30;99.00
49579;DHT22;35483;50.828;3.228;2023-10-13T16:04:08;22.20;99.00
49579;DHT22;35483;50.828;3.228;2023-10-13T16:06:44;22.20;99.00
49579;DHT22;35483;50.828;3.228;2023-10-13T16:09:21;22.20;99.00
49579;DHT22;35483;50.828;3.228;2023-10-13T16:11:51;22.20;99.00
49579;DHT22;35483;50.828;3.228;2023-10-13T16:14:18;22.20;99.00
49579;DHT22;35483;50.828;3.228;2023-10-13T16:16:46;22.20;99.00
49579;DHT22;35483;50.828;3.228;2023-10-13T16:19:14;22.20;99.00
49579;DHT22;35483;50.828;3.228;2023-10-13T16:21:40;22.20;99.10
49579;DHT22;35483;50.828;3.228;2023-10-13T16:24:06;22.10;99.10
49579;DHT22;35483;50.828;3.228;2023-10-13T16:26:39;22.10;99.20
49579;DHT22;35483;50.828;3.228;2023-10-13T16:29:07;21.70;99.90